Time;durP1;ratioP1;P1;durP2;ratioP2;P2;SDS_P1;SDS_P2;PMS_P1;PMS_P2;Temp;Humidity;BMP_temperature;BMP_pressure;BME280_temperature;BME280_humidity;BME280_pressure;Samples;Min_cycle;Max_cycle;Signal;HPM_P1;HPM_P2
2024/01/17 00:01:23;;;;;;;19.98;14.25;;;;;;;-4.10;100.00;100246.50;5032709;28;20156;-77
2024/01/17 00:03:49;;;;;;;17.63;13.65;;;;;;;-4.15;100.00;100243.19;5032611;28;20044;-76
2024/01/17 00:06:14;;;;;;;19.83;14.40;;;;;;;-4.26;100.00;100227.38;5032340;28;20159;-77
2024/01/17 00:08:39;;;;;;;21.45;13.48;;;;;;;-4.14;100.00;100238.13;5032380;28;20069;-77
2024/01/17 00:11:05;;;;;;;20.15;14.13;;;;;;;-4.16;100.00;100224.72;5032666;28;20075;-76
2024/01/17 00:13:30;;;;;;;18.52;14.95;;;;;;;-4.31;100.00;100198.88;5032427;28;20138;-76
2024/01/17 00:15:55;;;;;;;18.80;14.60;;;;;;;-4.19;100.00;100218.91;5032606;28;20029;-76
2024/01/17 00:18:21;;;;;;;20.13;14.70;;;;;;;-4.23;100.00;100215.56;5032362;28;20108;-76
2024/01/17 00:20:46;;;;;;;22.25;14.95;;;;;;;-4.33;100.00;100208.97;5032071;28;20098;-76
2024/01/17 00:23:11;;;;;;;20.27;14.13;;;;;;;-4.27;100.00;100215.63;5032368;28;20064;-76
2024/01/17 00:25:37;;;;;;;17.58;14.30;;;;;;;-4.32;100.00;100208.13;5032500;28;20424;-76
2024/01/17 00:28:02;;;;;;;21.77;14.57;;;;;;;-4.28;100.00;100202.19;5032195;28;20033;-76
2024/01/17 00:30:28;;;;;;;21.05;13.55;;;;;;;-4.32;100.00;100185.44;5031815;28;20058;-76
2024/01/17 00:32:53;;;;;;;20.15;14.15;;;;;;;-4.49;100.00;100154.59;5032354;28;20029;-76
2024/01/17 00:35:18;;;;;;;20.25;13.43;;;;;;;-4.37;100.00;100179.63;5032049;28;20075;-76
2024/01/17 00:37:44;;;;;;;20.77;14.30;;;;;;;-4.37;100.00;100185.50;5032069;28;20084;-76
2024/01/17 00:40:10;;;;;;;20.73;13.57;;;;;;;-4.37;100.00;100179.63;5032264;28;20033;-76
2024/01/17 00:42:35;;;;;;;20.52;13.95;;;;;;;-4.41;100.00;100170.44;5032069;28;20044;-76
2024/01/17 00:45:03;;;;;;;19.38;14.15;;;;;;;-4.37;100.00;100167.84;5032035;28;20026;-76
2024/01/17 00:47:28;;;;;;;19.55;13.90;;;;;;;-4.39;100.00;100162.00;5032042;28;20075;-77
2024/01/17 00:49:53;;;;;;;19.77;13.63;;;;;;;-4.46;100.00;100147.81;5032178;28;20037;-77
2024/01/17 00:52:19;;;;;;;21.10;13.52;;;;;;;-4.44;100.00;100153.66;5020425;28;20121;-77
2024/01/17 00:54:45;;;;;;;17.75;13.57;;;;;;;-4.54;100.00;100129.44;5012433;28;20422;-76
2024/01/17 00:57:10;;;;;;;19.20;12.77;;;;;;;-4.52;100.00;100135.31;5012439;28;20072;-76
2024/01/17 00:59:35;;;;;;;19.55;13.38;;;;;;;-4.60;100.00;100119.44;5012179;28;20029;-76
2024/01/17 01:02:02;;;;;;;16.35;13.05;;;;;;;-4.50;100.00;100135.28;4994124;28;20034;-76
2024/01/17 01:04:27;;;;;;;21.35;13.90;;;;;;;-4.54;100.00;100131.94;4994813;28;20061;-77
2024/01/17 01:06:53;;;;;;;20.83;14.20;;;;;;;-4.57;100.00;100132.00;5012191;28;20068;-77
2024/01/17 01:09:18;;;;;;;19.17;13.45;;;;;;;-4.60;100.00;100123.66;5013536;28;20034;-76
2024/01/17 01:11:43;;;;;;;19.02;13.70;;;;;;;-4.66;100.00;100119.50;4997650;28;20042;-77
2024/01/17 01:14:09;;;;;;;21.63;14.35;;;;;;;-4.79;100.00;100096.16;5015560;28;20034;-77
2024/01/17 01:16:34;;;;;;;19.23;13.60;;;;;;;-4.64;100.00;100126.19;5015501;28;20069;-76
2024/01/17 01:18:59;;;;;;;18.15;14.02;;;;;;;-4.87;100.00;100089.56;5015620;28;20026;-77
2024/01/17 01:21:25;;;;;;;20.65;13.02;;;;;;;-4.69;100.00;100117.03;5015593;28;20185;-77
2024/01/17 01:23:50;;;;;;;23.02;12.95;;;;;;;-4.68;100.00;100116.19;5015449;28;20111;-77
2024/01/17 01:26:16;;;;;;;20.60;13.00;;;;;;;-4.87;100.00;100089.56;5015422;28;20509;-77
2024/01/17 01:28:41;;;;;;;17.55;12.95;;;;;;;-4.81;100.00;100097.06;5015134;28;20132;-77
2024/01/17 01:31:06;;;;;;;16.90;12.85;;;;;;;-4.65;100.00;100111.94;5027109;28;20053;-76
2024/01/17 01:33:32;;;;;;;21.35;13.35;;;;;;;-4.82;100.00;100078.56;5035089;28;20025;-77
2024/01/17 01:35:58;;;;;;;18.13;13.65;;;;;;;-4.72;100.00;100101.94;5035252;28;20079;-78
2024/01/17 01:38:23;;;;;;;20.13;13.27;;;;;;;-4.68;100.00;100106.09;5035112;28;20021;-77
2024/01/17 01:40:48;;;;;;;19.88;13.85;;;;;;;-4.74;100.00;100103.66;5034807;28;20108;-79
2024/01/17 01:43:23;;;;;;;20.77;14.15;;;;;;;-4.70;100.00;100103.63;5034946;28;20025;-79
2024/01/17 01:46:11;;;;;;;18.65;13.32;;;;;;;-4.67;100.00;100113.66;5034569;28;20554;-78
2024/01/17 01:48:36;;;;;;;18.13;13.98;;;;;;;-4.65;100.00;100111.09;5034761;28;20061;-79
2024/01/17 01:51:03;;;;;;;21.23;13.20;;;;;;;-4.88;100.00;100071.09;5034751;28;20096;-78
2024/01/17 01:53:30;;;;;;;19.20;13.85;;;;;;;-4.92;100.00;100070.31;5035080;28;20026;-77
2024/01/17 01:55:56;;;;;;;17.30;12.77;;;;;;;-4.78;100.00;100087.75;5034864;28;20030;-77
2024/01/17 01:58:22;;;;;;;17.27;14.05;;;;;;;-4.73;100.00;100096.06;5034481;28;20025;-77
2024/01/17 02:00:49;;;;;;;21.50;13.85;;;;;;;-4.71;100.00;100094.41;5034328;28;20048;-77
2024/01/17 02:03:15;;;;;;;18.45;12.88;;;;;;;-4.66;100.00;100094.31;5034452;28;20030;-77
2024/01/17 02:05:41;;;;;;;17.38;13.18;;;;;;;-4.71;100.00;100080.97;5034375;28;20032;-77
2024/01/17 02:08:07;;;;;;;18.27;12.77;;;;;;;-4.69;100.00;100069.19;5034519;28;20022;-77
2024/01/17 02:10:34;;;;;;;16.65;13.07;;;;;;;-4.84;100.00;100044.19;5033197;28;20499;-77
2024/01/17 02:12:59;;;;;;;20.15;13.63;;;;;;;-4.65;100.00;100068.28;5034142;28;20381;-77
2024/01/17 02:15:25;;;;;;;20.08;13.02;;;;;;;-4.62;100.00;100065.75;5034369;28;20029;-77
2024/01/17 02:17:50;;;;;;;17.90;12.27;;;;;;;-4.85;100.00;100013.13;5034065;28;20029;-77
2024/01/17 02:20:15;;;;;;;15.57;12.02;;;;;;;-4.63;100.00;100046.41;5033313;28;20028;-77
2024/01/17 02:22:41;;;;;;;19.85;13.88;;;;;;;-4.55;100.00;100052.19;5033935;28;20021;-77
2024/01/17 02:25:06;;;;;;;21.70;13.05;;;;;;;-4.61;100.00;100052.28;5034188;28;20021;-77
2024/01/17 02:27:32;;;;;;;19.35;12.63;;;;;;;-4.66;100.00;100038.91;5033911;28;20014;-77
2024/01/17 02:29:57;;;;;;;18.13;13.60;;;;;;;-4.51;100.00;100042.91;5033944;28;20156;-76
2024/01/17 02:32:23;;;;;;;20.83;13.88;;;;;;;-4.56;100.00;100029.53;5034196;28;20108;-77
2024/01/17 02:34:49;;;;;;;17.05;12.50;;;;;;;-4.59;100.00;100022.88;5034033;28;20049;-77
2024/01/17 02:37:15;;;;;;;17.08;12.25;;;;;;;-4.63;100.00;100018.69;5033801;28;20095;-77
2024/01/17 02:39:40;;;;;;;19.35;12.93;;;;;;;-4.64;100.00;100014.53;5033673;28;20064;-77
2024/01/17 02:42:05;;;;;;;19.45;12.13;;;;;;;-4.63;100.00;100013.66;5033860;28;20053;-77
2024/01/17 02:44:31;;;;;;;19.25;12.98;;;;;;;-4.72;100.00;99999.53;5034162;28;20103;-78
2024/01/17 02:46:56;;;;;;;19.63;14.02;;;;;;;-4.65;100.00;100007.81;5033604;28;20030;-78
2024/01/17 02:49:21;;;;;;;22.92;14.73;;;;;;;-4.75;100.00;99992.00;5033681;28;20426;-77
2024/01/17 02:51:47;;;;;;;20.27;14.95;;;;;;;-4.71;100.00;100002.88;5033630;28;20355;-77
2024/01/17 02:54:12;;;;;;;20.25;14.63;;;;;;;-4.83;100.00;99981.19;5033240;28;20032;-77
2024/01/17 02:56:37;;;;;;;16.85;13.05;;;;;;;-4.75;100.00;99993.69;5033578;28;20087;-78
2024/01/17 02:59:03;;;;;;;21.92;14.40;;;;;;;-4.76;100.00;99992.88;5033468;28;20047;-78
2024/01/17 03:01:28;;;;;;;19.05;13.18;;;;;;;-4.77;100.00;99991.19;5033461;28;20032;-77
2024/01/17 03:03:54;;;;;;;21.13;14.43;;;;;;;-4.77;100.00;99987.84;5033416;28;20527;-79
2024/01/17 03:06:20;;;;;;;20.38;14.68;;;;;;;-4.88;100.00;99974.59;5033351;28;20837;-77
2024/01/17 03:08:45;;;;;;;19.05;13.98;;;;;;;-4.97;100.00;99958.75;5032991;28;20052;-77
2024/01/17 03:11:10;;;;;;;17.95;14.30;;;;;;;-4.90;100.00;99964.53;5033242;28;20457;-78
2024/01/17 03:13:35;;;;;;;21.17;14.85;;;;;;;-4.92;100.00;99962.03;5033361;28;20040;-78
2024/01/17 03:16:01;;;;;;;20.75;14.98;;;;;;;-4.93;100.00;99955.31;5033149;28;20038;-78
2024/01/17 03:18:26;;;;;;;19.13;14.77;;;;;;;-5.09;100.00;99931.22;5033206;28;20057;-79
2024/01/17 03:20:51;;;;;;;18.30;14.40;;;;;;;-5.02;100.00;99947.88;5033080;28;20104;-80
2024/01/17 03:23:17;;;;;;;19.25;14.90;;;;;;;-5.14;100.00;99932.97;5032972;28;20029;-78
2024/01/17 03:25:42;;;;;;;21.75;15.27;;;;;;;-5.05;100.00;99947.09;5032967;28;20125;-79
2024/01/17 03:28:08;;;;;;;19.65;15.13;;;;;;;-4.97;100.00;99947.84;5033020;28;20022;-79
2024/01/17 03:30:34;;;;;;;21.15;14.82;;;;;;;-5.01;100.00;99942.03;5032485;28;20099;-79
2024/01/17 03:32:59;;;;;;;22.25;14.65;;;;;;;-5.02;100.00;99932.78;5032958;28;20519;-79
2024/01/17 03:35:24;;;;;;;19.00;15.00;;;;;;;-4.99;100.00;99920.19;5032871;28;20025;-80
2024/01/17 03:37:50;;;;;;;18.83;13.55;;;;;;;-4.99;100.00;99911.78;5032694;28;20104;-80
2024/01/17 03:40:15;;;;;;;18.25;14.52;;;;;;;-5.29;100.00;99858.53;5032623;28;20171;-78
2024/01/17 03:42:41;;;;;;;19.15;14.02;;;;;;;-5.03;100.00;99885.81;5032864;28;20057;-78
2024/01/17 03:45:06;;;;;;;19.52;12.68;;;;;;;-4.97;100.00;99885.72;5032899;28;20029;-78
2024/01/17 03:47:32;;;;;;;19.95;13.02;;;;;;;-4.96;100.00;99881.53;5032757;28;20384;-77
2024/01/17 03:49:57;;;;;;;18.77;14.63;;;;;;;-4.99;100.00;99879.91;5032663;28;20029;-77
2024/01/17 03:52:23;;;;;;;20.85;14.30;;;;;;;-4.96;100.00;99882.34;5032736;28;20469;-77
2024/01/17 03:54:48;;;;;;;20.88;14.73;;;;;;;-4.99;100.00;99876.56;5031052;28;20548;-77
2024/01/17 03:57:14;;;;;;;20.27;13.38;;;;;;;-5.28;100.00;99834.19;5032650;28;20030;-77
2024/01/17 03:59:43;;;;;;;19.25;13.77;;;;;;;-4.97;100.00;99868.09;5032743;28;20024;-77
2024/01/17 04:02:09;;;;;;;20.17;14.55;;;;;;;-5.08;100.00;99844.78;5032323;28;20370;-78
2024/01/17 04:04:34;;;;;;;19.55;14.32;;;;;;;-5.06;100.00;99839.72;5032284;28;20087;-77
2024/01/17 04:07:00;;;;;;;21.17;14.60;;;;;;;-5.04;100.00;99846.41;5032467;28;20045;-77
2024/01/17 04:09:25;;;;;;;20.70;14.43;;;;;;;-5.03;100.00;99844.72;5032338;28;20034;-77
2024/01/17 04:11:50;;;;;;;20.02;14.55;;;;;;;-5.12;100.00;99820.50;5032316;28;20029;-77
2024/01/17 04:14:16;;;;;;;19.15;14.55;;;;;;;-5.08;100.00;99812.06;5032312;28;20159;-76
2024/01/17 04:16:41;;;;;;;20.25;14.60;;;;;;;-5.01;100.00;99810.28;5032324;28;20040;-78
2024/01/17 04:19:08;;;;;;;23.30;15.90;;;;;;;-5.24;100.00;99765.34;5032242;28;20033;-76
2024/01/17 04:21:34;;;;;;;23.15;14.30;;;;;;;-4.97;100.00;99794.28;5032557;28;20387;-76
2024/01/17 04:24:00;;;;;;;18.65;15.07;;;;;;;-5.00;100.00;99794.34;5032519;28;20026;-77
2024/01/17 04:26:26;;;;;;;18.77;13.93;;;;;;;-4.99;100.00;99791.78;5032278;28;20029;-76
2024/01/17 04:28:52;;;;;;;18.50;14.88;;;;;;;-4.95;100.00;99790.03;5032162;28;20635;-78
2024/01/17 04:31:29;;;;;;;20.17;14.40;;;;;;;-4.96;100.00;99784.19;5031982;28;20049;-77
2024/01/17 04:33:55;;;;;;;18.85;14.15;;;;;;;-5.03;100.00;99764.16;5032132;28;20021;-78
2024/01/17 04:36:21;;;;;;;20.73;14.65;;;;;;;-4.98;100.00;99770.78;5032240;28;20044;-77
2024/01/17 04:38:47;;;;;;;18.25;13.93;;;;;;;-4.98;100.00;99762.41;5032086;28;20420;-78
2024/01/17 04:41:15;;;;;;;19.63;14.40;;;;;;;-5.00;100.00;99752.38;5032046;28;20025;-78
2024/01/17 04:43:41;;;;;;;19.90;14.52;;;;;;;-5.03;100.00;99744.84;5032789;28;20350;-78
2024/01/17 04:46:12;;;;;;;23.67;16.83;;;;;;;-5.04;100.00;99733.13;5035967;28;20062;-78
2024/01/17 04:48:39;;;;;;;23.13;18.98;;;;;;;-5.06;100.00;99731.50;5035673;28;20029;-78
2024/01/17 04:51:04;;;;;;;24.33;18.83;;;;;;;-5.01;100.00;99727.22;5035802;28;20511;-78
2024/01/17 04:53:31;;;;;;;24.48;17.88;;;;;;;-5.16;100.00;99712.38;5035985;28;20017;-78
2024/01/17 04:55:57;;;;;;;21.50;14.50;;;;;;;-5.20;100.00;99706.56;5035883;28;20052;-80
2024/01/17 04:58:22;;;;;;;21.42;13.73;;;;;;;-5.08;100.00;99734.03;5035870;28;20029;-80
2024/01/17 05:00:47;;;;;;;20.40;13.85;;;;;;;-5.06;100.00;99732.31;5035565;28;20485;-78
2024/01/17 05:03:13;;;;;;;19.55;14.38;;;;;;;-5.03;100.00;99719.66;5035434;28;20025;-79
2024/01/17 05:05:41;;;;;;;22.00;15.75;;;;;;;-5.07;100.00;99722.28;5035687;28;20100;-78
2024/01/17 05:08:06;;;;;;;18.48;14.57;;;;;;;-5.06;100.00;99718.91;5035591;28;20048;-78
2024/01/17 05:10:31;;;;;;;22.45;14.93;;;;;;;-5.12;100.00;99706.41;5035459;28;20022;-78
2024/01/17 05:12:57;;;;;;;19.13;14.65;;;;;;;-5.16;100.00;99704.81;5035425;28;20029;-79
2024/01/17 05:15:24;;;;;;;21.77;14.95;;;;;;;-5.15;100.00;99701.44;5033588;28;20037;-78
2024/01/17 05:17:49;;;;;;;20.17;15.13;;;;;;;-5.21;100.00;99682.25;5035293;28;20022;-78
2024/01/17 05:20:16;;;;;;;20.85;15.15;;;;;;;-5.28;100.00;99673.16;5035377;28;20547;-78
2024/01/17 05:22:42;;;;;;;22.60;15.10;;;;;;;-5.16;100.00;99703.13;5035399;28;20112;-78
2024/01/17 05:25:09;;;;;;;20.67;13.70;;;;;;;-5.34;100.00;99678.28;5017562;28;20105;-78
2024/01/17 05:27:34;;;;;;;20.55;14.65;;;;;;;-5.24;100.00;99688.16;5035015;28;20088;-78
2024/01/17 05:29:59;;;;;;;20.35;14.10;;;;;;;-5.20;100.00;99691.47;5034815;28;20045;-78
2024/01/17 05:32:25;;;;;;;21.15;14.52;;;;;;;-5.24;100.00;99680.59;5035089;28;20041;-78
2024/01/17 05:34:53;;;;;;;23.30;14.98;;;;;;;-5.24;100.00;99673.06;5035052;28;20030;-78
2024/01/17 05:37:21;;;;;;;22.60;15.75;;;;;;;-5.18;100.00;99658.72;5035195;28;20087;-78
2024/01/17 05:39:47;;;;;;;18.23;14.75;;;;;;;-5.51;100.00;99605.59;5033445;28;20030;-79
2024/01/17 05:42:12;;;;;;;22.48;14.95;;;;;;;-5.31;100.00;99632.94;5034671;28;20112;-78
2024/01/17 05:44:37;;;;;;;20.40;14.02;;;;;;;-5.21;100.00;99644.53;5023324;28;20038;-78
2024/01/17 05:47:04;;;;;;;22.50;14.40;;;;;;;-5.17;100.00;99646.09;5015106;28;20359;-78
2024/01/17 05:49:30;;;;;;;20.85;14.40;;;;;;;-5.15;100.00;99638.53;5015108;28;20025;-78
2024/01/17 05:51:55;;;;;;;24.90;14.98;;;;;;;-5.21;100.00;99617.66;5015053;28;20041;-79
2024/01/17 05:54:21;;;;;;;17.73;13.70;;;;;;;-5.14;100.00;99625.91;5014991;28;20026;-78
2024/01/17 05:56:46;;;;;;;24.05;14.35;;;;;;;-5.13;100.00;99622.53;5014720;28;20025;-78
2024/01/17 05:59:13;;;;;;;21.33;14.35;;;;;;;-5.12;100.00;99620.84;5014889;28;20034;-78
2024/01/17 06:01:38;;;;;;;20.70;13.80;;;;;;;-5.18;100.00;99603.38;5014817;28;20389;-79
2024/01/17 06:04:04;;;;;;;20.55;13.25;;;;;;;-5.11;100.00;99613.28;5014406;28;20022;-78
2024/01/17 06:06:29;;;;;;;20.08;14.45;;;;;;;-5.14;100.00;99600.75;5014935;28;20114;-81
2024/01/17 06:08:54;;;;;;;20.60;14.65;;;;;;;-5.03;100.00;99615.63;4996999;28;20030;-76
2024/01/17 06:11:20;;;;;;;20.52;14.93;;;;;;;-5.04;100.00;99602.22;5014515;28;20531;-78
2024/01/17 06:13:45;;;;;;;22.30;13.75;;;;;;;-5.01;100.00;99598.84;5014519;28;20097;-78
2024/01/17 06:16:10;;;;;;;20.77;14.57;;;;;;;-5.00;100.00;99603.84;5014481;28;20033;-79
2024/01/17 06:18:36;;;;;;;20.88;13.68;;;;;;;-4.99;100.00;99597.13;5014211;28;20049;-82
2024/01/17 06:21:01;;;;;;;19.90;14.50;;;;;;;-4.97;100.00;99591.19;5012853;28;20042;-78
2024/01/17 06:23:26;;;;;;;19.02;13.88;;;;;;;-4.97;100.00;99595.41;5014408;28;20033;-78
2024/01/17 06:25:52;;;;;;;22.45;15.23;;;;;;;-5.22;100.00;99532.13;5014166;28;20080;-78
2024/01/17 06:28:18;;;;;;;18.77;14.35;;;;;;;-5.02;100.00;99572.00;5014222;28;20061;-77
2024/01/17 06:30:44;;;;;;;21.17;14.75;;;;;;;-4.90;100.00;99581.84;5022939;28;20049;-78
2024/01/17 06:33:10;;;;;;;22.45;15.50;;;;;;;-4.91;100.00;99568.41;5033726;28;20033;-78
2024/01/17 06:35:35;;;;;;;19.00;13.40;;;;;;;-4.86;100.00;99580.06;5033853;28;20069;-78
2024/01/17 06:38:01;;;;;;;19.42;14.50;;;;;;;-4.90;100.00;99566.72;5033894;28;20104;-78
2024/01/17 06:40:26;;;;;;;20.33;13.75;;;;;;;-4.81;100.00;99571.59;5033756;28;20033;-78
2024/01/17 06:42:52;;;;;;;18.85;14.20;;;;;;;-4.79;100.00;99561.47;5033779;28;20501;-78
2024/01/17 06:45:17;;;;;;;20.27;12.88;;;;;;;-4.76;100.00;99557.19;5033430;28;20113;-79
2024/01/17 06:47:43;;;;;;;18.77;13.50;;;;;;;-4.74;100.00;99552.94;5033896;28;20117;-79
2024/01/17 06:50:09;;;;;;;20.15;13.77;;;;;;;-4.72;100.00;99557.94;5015813;28;20033;-77
2024/01/17 06:52:35;;;;;;;19.05;14.23;;;;;;;-4.81;100.00;99532.97;5033320;28;20033;-78
2024/01/17 06:55:00;;;;;;;18.13;12.90;;;;;;;-4.68;100.00;99557.03;5033769;28;20029;-78
2024/01/17 06:57:25;;;;;;;18.25;13.80;;;;;;;-4.70;100.00;99557.06;5033595;28;20033;-79
2024/01/17 06:59:51;;;;;;;17.63;13.73;;;;;;;-4.65;100.00;99559.47;5033466;28;20388;-79
2024/01/17 07:02:16;;;;;;;18.05;14.50;;;;;;;-4.66;100.00;99553.63;5033461;28;20029;-78
2024/01/17 07:04:42;;;;;;;18.55;13.82;;;;;;;-4.62;100.00;99551.88;5033251;28;20472;-76
2024/01/17 07:07:07;;;;;;;18.88;12.85;;;;;;;-4.71;100.00;99534.44;5031480;28;20396;-75
2024/01/17 07:09:33;;;;;;;16.95;12.73;;;;;;;-4.66;100.00;99532.63;5033563;28;20502;-77
2024/01/17 07:11:58;;;;;;;19.02;13.15;;;;;;;-4.57;100.00;99537.47;5033669;28;20029;-76
2024/01/17 07:14:24;;;;;;;20.10;13.55;;;;;;;-4.50;100.00;99535.66;5033324;28;20404;-75
2024/01/17 07:16:49;;;;;;;18.48;12.55;;;;;;;-4.56;100.00;99515.63;5032934;28;20052;-75
2024/01/17 07:19:15;;;;;;;18.10;13.27;;;;;;;-4.48;100.00;99522.16;5032868;28;20061;-76
2024/01/17 07:21:42;;;;;;;18.10;13.93;;;;;;;-4.55;100.00;99489.56;5033043;28;20033;-75
2024/01/17 07:24:08;;;;;;;15.52;12.25;;;;;;;-4.55;100.00;99487.88;5032987;28;20029;-75
2024/01/17 07:26:33;;;;;;;18.65;13.40;;;;;;;-4.64;100.00;99463.72;5032965;28;20030;-75
2024/01/17 07:28:58;;;;;;;17.33;12.48;;;;;;;-4.37;100.00;99489.97;5032754;28;20068;-75
2024/01/17 07:31:24;;;;;;;18.30;13.77;;;;;;;-4.38;100.00;99478.25;5032413;28;20062;-75
2024/01/17 07:33:49;;;;;;;18.13;13.02;;;;;;;-4.34;100.00;99477.28;5032712;28;20028;-74
2024/01/17 07:36:14;;;;;;;17.00;12.70;;;;;;;-4.41;100.00;99473.28;5032609;28;20033;-76
2024/01/17 07:38:39;;;;;;;19.17;12.27;;;;;;;-4.34;100.00;99474.78;5033013;28;20030;-76
2024/01/17 07:41:05;;;;;;;19.42;12.85;;;;;;;-4.28;100.00;99467.94;5032662;28;20025;-77
2024/01/17 07:43:31;;;;;;;17.50;12.93;;;;;;;-4.27;100.00;99469.59;5032833;28;20025;-77
2024/01/17 07:45:57;;;;;;;20.13;12.43;;;;;;;-4.26;100.00;99464.50;5032761;28;20400;-75
2024/01/17 07:48:22;;;;;;;17.75;13.32;;;;;;;-4.24;100.00;99460.25;5032711;28;20033;-76
2024/01/17 07:50:48;;;;;;;18.55;13.32;;;;;;;-4.31;100.00;99438.63;5032368;28;20034;-78
2024/01/17 07:53:13;;;;;;;17.40;12.73;;;;;;;-4.30;100.00;99427.66;5032680;28;20032;-74
2024/01/17 07:55:39;;;;;;;18.52;13.40;;;;;;;-4.17;100.00;99446.66;5032727;28;20030;-75
2024/01/17 07:58:05;;;;;;;15.95;11.50;;;;;;;-4.15;100.00;99434.00;5032012;28;20033;-73
2024/01/17 08:00:30;;;;;;;16.40;12.70;;;;;;;-4.12;100.00;99429.72;5032788;28;20036;-75
2024/01/17 08:02:57;;;;;;;19.08;11.45;;;;;;;-4.06;100.00;99433.75;5032285;28;20037;-76
2024/01/17 08:05:22;;;;;;;14.73;11.48;;;;;;;-4.07;100.00;99435.47;5032519;28;20037;-76
2024/01/17 08:07:48;;;;;;;18.25;12.10;;;;;;;-4.06;100.00;99422.00;5032604;28;20036;-77
2024/01/17 08:10:13;;;;;;;18.55;12.85;;;;;;;-4.10;100.00;99407.00;5032636;28;20026;-77
2024/01/17 08:12:39;;;;;;;15.70;12.63;;;;;;;-3.97;100.00;99425.13;5031353;28;20072;-77
2024/01/17 08:15:08;;;;;;;16.50;11.70;;;;;;;-4.11;100.00;99402.81;5032653;28;20021;-78
2024/01/17 08:17:33;;;;;;;18.73;12.55;;;;;;;-3.94;100.00;99409.91;5032342;28;20380;-75
2024/01/17 08:19:59;;;;;;;19.75;13.35;;;;;;;-3.86;100.00;99405.50;5034959;28;20036;-78
2024/01/17 08:22:25;;;;;;;17.50;11.85;;;;;;;-3.87;100.00;99401.34;5034693;28;20107;-78
2024/01/17 08:24:50;;;;;;;18.95;12.35;;;;;;;-3.72;100.00;99415.25;5036480;28;20064;-79
2024/01/17 08:27:15;;;;;;;15.48;10.93;;;;;;;-3.85;100.00;99387.81;5036475;28;20032;-77
2024/01/17 08:29:44;;;;;;;16.85;11.68;;;;;;;-3.65;100.00;99404.09;5036020;28;20064;-78
2024/01/17 08:32:10;;;;;;;20.20;12.45;;;;;;;-3.74;100.00;99377.41;5018246;28;20056;-78
2024/01/17 08:34:36;;;;;;;16.63;11.82;;;;;;;-3.53;100.00;99396.19;5034457;28;20105;-74
2024/01/17 08:37:01;;;;;;;20.63;12.05;;;;;;;-3.75;100.00;99356.41;5036100;28;20072;-81
2024/01/17 08:39:27;;;;;;;17.33;12.30;;;;;;;-3.58;100.00;99372.78;5036046;28;20029;-76
2024/01/17 08:41:53;;;;;;;18.40;12.27;;;;;;;-3.47;100.00;99384.22;5035979;28;20056;-77
2024/01/17 08:44:19;;;;;;;19.27;13.65;;;;;;;-3.42;100.00;99379.03;5036220;28;20061;-76
2024/01/17 08:46:45;;;;;;;20.70;13.32;;;;;;;-3.38;100.00;99380.59;5035736;28;20504;-77
2024/01/17 08:49:11;;;;;;;21.38;13.60;;;;;;;-3.35;100.00;99374.63;5035670;28;20025;-78
2024/01/17 08:51:37;;;;;;;19.20;13.20;;;;;;;-3.36;100.00;99351.06;5035722;28;20029;-79
2024/01/17 08:54:05;;;;;;;22.40;13.90;;;;;;;-3.40;100.00;99331.88;5035970;28;20021;-78
2024/01/17 08:56:31;;;;;;;20.58;13.75;;;;;;;-3.27;100.00;99348.28;5018091;28;20114;-79
2024/01/17 08:58:57;;;;;;;19.45;14.35;;;;;;;-3.19;100.00;99346.34;5035673;28;20532;-78
2024/01/17 09:01:22;;;;;;;21.27;14.88;;;;;;;-3.13;100.00;99347.88;5018186;28;20049;-79
2024/01/17 09:03:48;;;;;;;21.30;14.35;;;;;;;-3.13;100.00;99332.72;5035577;28;20030;-80
2024/01/17 09:06:13;;;;;;;22.58;15.48;;;;;;;-2.94;100.00;99348.97;5035439;28;20033;-79
2024/01/17 09:08:39;;;;;;;20.58;14.02;;;;;;;-2.93;100.00;99340.50;5035537;28;20080;-79
2024/01/17 09:11:05;;;;;;;18.80;13.55;;;;;;;-2.92;100.00;99327.00;5035724;28;20044;-74
2024/01/17 09:13:31;;;;;;;21.50;15.23;;;;;;;-2.87;100.00;99324.31;5035581;28;20499;-76
2024/01/17 09:15:57;;;;;;;20.20;14.63;;;;;;;-2.81;100.00;99324.13;5035553;28;20515;-80
2024/01/17 09:18:22;;;;;;;20.58;15.02;;;;;;;-2.86;100.00;99305.75;5035345;28;20030;-79
2024/01/17 09:20:47;;;;;;;20.92;16.00;;;;;;;-2.73;100.00;99316.28;5035143;28;20034;-80
2024/01/17 09:23:13;;;;;;;19.65;15.10;;;;;;;-2.66;100.00;99308.44;5042299;23;20049;-79
2024/01/17 09:25:38;;;;;;;21.55;16.60;;;;;;;-2.75;100.00;99280.13;5035448;28;20033;-81
2024/01/17 09:28:04;;;;;;;22.27;16.05;;;;;;;-2.63;100.00;99282.28;5035346;28;20515;-78
2024/01/17 09:30:29;;;;;;;20.85;14.50;;;;;;;-2.59;100.00;99281.28;5034598;28;20065;-81
2024/01/17 09:32:55;;;;;;;20.27;14.13;;;;;;;-2.40;100.00;99316.84;5017408;28;20045;-79
2024/01/17 09:35:20;;;;;;;19.50;14.20;;;;;;;-2.43;100.00;99302.63;5034914;28;20071;-78
2024/01/17 09:37:46;;;;;;;19.38;13.73;;;;;;;-2.31;100.00;99292.09;5033320;28;20037;-81
2024/01/17 09:40:13;;;;;;;20.27;14.63;;;;;;;-2.17;100.00;99311.81;5035218;28;20020;-79
2024/01/17 09:42:39;;;;;;;20.88;15.20;;;;;;;-2.24;100.00;99282.59;5034912;28;20025;-80
2024/01/17 09:45:09;;;;;;;20.75;14.80;;;;;;;-2.01;100.00;99307.03;5017126;28;20135;-80
2024/01/17 09:47:46;;;;;;;;;;;;;;;;;;;;;
2024/01/17 09:50:12;;;;;;;21.38;16.88;;;;;;;-1.88;100.00;99303.19;5032928;28;20029;-74
2024/01/17 09:52:41;;;;;;;21.13;16.08;;;;;;;-1.86;100.00;99309.03;5027019;28;20032;-75
2024/01/17 09:55:08;;;;;;;22.45;16.25;;;;;;;-1.96;100.00;99289.19;5015048;28;20105;-77
2024/01/17 09:57:37;;;;;;;21.40;16.10;;;;;;;-1.99;100.00;99272.41;5015154;28;20084;-80
2024/01/17 10:00:09;;;;;;;21.55;16.27;;;;;;;-1.74;100.00;99303.50;5015021;28;20076;-78
2024/01/17 10:02:38;;;;;;;23.85;17.67;;;;;;;-1.71;100.00;99294.97;5014859;28;20050;-80
2024/01/17 10:05:09;;;;;;;20.98;17.48;;;;;;;-1.73;100.00;99281.56;5015034;28;20057;-80
2024/01/17 10:07:36;;;;;;;26.67;18.00;;;;;;;-1.68;100.00;99287.25;5014688;28;20500;-80
2024/01/17 10:10:02;;;;;;;22.20;17.17;;;;;;;-1.82;100.00;99270.06;5014258;28;20470;-80
2024/01/17 10:12:27;;;;;;;19.20;14.98;;;;;;;-1.69;100.00;99285.63;5014680;28;20057;-78
2024/01/17 10:14:52;;;;;;;19.85;15.25;;;;;;;-1.71;100.00;99279.78;5013375;28;20030;-80
2024/01/17 10:17:19;;;;;;;21.23;14.45;;;;;;;-1.67;100.00;99285.56;5014454;28;20109;-79
2024/01/17 10:19:44;;;;;;;20.48;13.68;;;;;;;-1.75;100.00;99263.09;5014459;28;20410;-77
2024/01/17 10:22:10;;;;;;;15.80;12.05;;;;;;;-1.63;100.00;99282.03;5014330;28;20026;-74
2024/01/17 10:24:37;;;;;;;19.30;12.93;;;;;;;-1.75;100.00;99245.38;5014462;28;20033;-77
2024/01/17 10:27:03;;;;;;;19.15;12.60;;;;;;;-1.66;100.00;99250.09;5014592;28;20053;-78
2024/01/17 10:29:30;;;;;;;17.00;11.70;;;;;;;-1.50;100.00;99255.38;5012938;28;20068;-80
2024/01/17 10:31:59;;;;;;;17.45;11.93;;;;;;;-1.48;100.00;99259.47;5014239;28;20025;-81
2024/01/17 10:34:31;;;;;;;19.33;11.50;;;;;;;-1.42;100.00;99258.44;5013128;28;20049;-80
2024/01/17 10:36:56;;;;;;;17.75;10.90;;;;;;;-1.42;100.00;99257.59;4996444;28;20022;-81
2024/01/17 10:39:22;;;;;;;18.05;10.80;;;;;;;-1.49;100.00;99244.34;5014309;28;20474;-81
2024/01/17 10:41:54;;;;;;;16.60;10.38;;;;;;;-1.74;100.00;99199.75;5013285;28;20037;-81
2024/01/17 10:44:22;;;;;;;15.98;10.55;;;;;;;-1.78;100.00;99190.63;5014040;28;20026;-76
2024/01/17 10:46:52;;;;;;;15.75;9.77;;;;;;;-1.38;100.00;99246.47;5013882;28;20475;-78
2024/01/17 10:49:19;;;;;;;15.32;9.35;;;;;;;-1.35;100.00;99244.66;5013763;28;20445;-78
2024/01/17 10:52:02;;;;;;;15.00;10.00;;;;;;;-1.27;100.00;99226.63;5013691;28;20385;-78
2024/01/17 10:54:33;;;;;;;15.52;10.32;;;;;;;-1.36;100.00;99209.28;5013983;28;20028;-79
2024/01/17 10:57:04;;;;;;;14.88;10.73;;;;;;;-1.24;100.00;99223.97;5013886;28;20112;-78
2024/01/17 10:59:29;;;;;;;17.23;10.63;;;;;;;-1.14;100.00;99219.34;5013761;28;20026;-78
2024/01/17 11:01:55;;;;;;;13.70;9.75;;;;;;;-1.01;100.00;99220.47;5013978;28;20026;-78
2024/01/17 11:04:24;;;;;;;18.08;11.57;;;;;;;-1.26;100.00;99167.50;5013833;28;20462;-77